sensor_id;sensor_type;location;lat;lon;timestamp;P1;durP1;ratioP1;P2;durP2;ratioP2
3975;SDS011;2002;48.812;9.180;2022-09-17T00:01:03;2.50;;;1.97;;
3975;SDS011;2002;48.812;9.180;2022-09-17T00:03:30;2.77;;;2.20;;
3975;SDS011;2002;48.812;9.180;2022-09-17T00:05:58;1.87;;;1.70;;
3975;SDS011;2002;48.812;9.180;2022-09-17T00:08:24;2.27;;;2.07;;
3975;SDS011;2002;48.812;9.180;2022-09-17T00:10:50;2.60;;;2.30;;
3975;SDS011;2002;48.812;9.180;2022-09-17T00:13:15;2.17;;;1.97;;
3975;SDS011;2002;48.812;9.180;2022-09-17T00:15:45;2.37;;;2.17;;
3975;SDS011;2002;48.812;9.180;2022-09-17T00:18:11;2.93;;;2.57;;
3975;SDS011;2002;48.812;9.180;2022-09-17T00:20:38;2.40;;;2.17;;
3975;SDS011;2002;48.812;9.180;2022-09-17T00:23:05;2.43;;;2.23;;
3975;SDS011;2002;48.812;9.180;2022-09-17T00:25:31;3.00;;;2.17;;
3975;SDS011;2002;48.812;9.180;2022-09-17T00:27:56;2.80;;;2.60;;
3975;SDS011;2002;48.812;9.180;2022-09-17T00:30:22;2.47;;;2.27;;
3975;SDS011;2002;48.812;9.180;2022-09-17T00:32:47;1.90;;;1.80;;
3975;SDS011;2002;48.812;9.180;2022-09-17T00:35:13;2.17;;;1.97;;
3975;SDS011;2002;48.812;9.180;2022-09-17T00:37:38;2.17;;;1.97;;
3975;SDS011;2002;48.812;9.180;2022-09-17T00:40:04;2.83;;;1.83;;
3975;SDS011;2002;48.812;9.180;2022-09-17T00:42:30;2.50;;;2.30;;
3975;SDS011;2002;48.812;9.180;2022-09-17T00:44:56;2.80;;;2.40;;
3975;SDS011;2002;48.812;9.180;2022-09-17T00:47:28;1.90;;;1.80;;
3975;SDS011;2002;48.812;9.180;2022-09-17T00:50:01;2.70;;;2.50;;
3975;SDS011;2002;48.812;9.180;2022-09-17T00:52:58;2.57;;;2.37;;
3975;SDS011;2002;48.812;9.180;2022-09-17T00:55:32;2.00;;;1.87;;
3975;SDS011;2002;48.812;9.180;2022-09-17T00:58:01;1.70;;;1.60;;
3975;SDS011;2002;48.812;9.180;2022-09-17T01:00:29;2.50;;;2.30;;
3975;SDS011;2002;48.812;9.180;2022-09-17T01:02:55;2.07;;;1.90;;
3975;SDS011;2002;48.812;9.180;2022-09-17T01:05:29;2.33;;;2.13;;
3975;SDS011;2002;48.812;9.180;2022-09-17T01:07:57;3.10;;;1.80;;
3975;SDS011;2002;48.812;9.180;2022-09-17T01:10:42;2.87;;;2.10;;
3975;SDS011;2002;48.812;9.180;2022-09-17T01:13:33;2.30;;;2.07;;
3975;SDS011;2002;48.812;9.180;2022-09-17T01:16:16;2.07;;;1.50;;
3975;SDS011;2002;48.812;9.180;2022-09-17T01:36:06;2.43;;;1.93;;
3975;SDS011;2002;48.812;9.180;2022-09-17T01:38:39;2.17;;;1.67;;
3975;SDS011;2002;48.812;9.180;2022-09-17T01:41:20;2.40;;;2.20;;
3975;SDS011;2002;48.812;9.180;2022-09-17T01:46:51;2.00;;;1.80;;
3975;SDS011;2002;48.812;9.180;2022-09-17T01:49:22;1.70;;;1.60;;
3975;SDS011;2002;48.812;9.180;2022-09-17T01:51:49;2.30;;;1.93;;
3975;SDS011;2002;48.812;9.180;2022-09-17T01:59:51;1.80;;;1.70;;
3975;SDS011;2002;48.812;9.180;2022-09-17T02:04:57;1.57;;;1.47;;
3975;SDS011;2002;48.812;9.180;2022-09-17T02:07:29;1.63;;;1.53;;
3975;SDS011;2002;48.812;9.180;2022-09-17T02:09:58;2.30;;;1.87;;
3975;SDS011;2002;48.812;9.180;2022-09-17T02:12:32;1.53;;;1.40;;
3975;SDS011;2002;48.812;9.180;2022-09-17T02:15:02;4.23;;;2.40;;
3975;SDS011;2002;48.812;9.180;2022-09-17T02:17:34;2.20;;;2.00;;
3975;SDS011;2002;48.812;9.180;2022-09-17T02:20:07;2.10;;;1.90;;
3975;SDS011;2002;48.812;9.180;2022-09-17T02:22:38;3.27;;;1.60;;
3975;SDS011;2002;48.812;9.180;2022-09-17T02:27:45;2.20;;;2.00;;
3975;SDS011;2002;48.812;9.180;2022-09-17T02:30:25;1.63;;;1.53;;
3975;SDS011;2002;48.812;9.180;2022-09-17T02:32:50;2.00;;;1.80;;
3975;SDS011;2002;48.812;9.180;2022-09-17T02:35:17;1.63;;;1.53;;
3975;SDS011;2002;48.812;9.180;2022-09-17T02:37:43;2.20;;;1.67;;
3975;SDS011;2002;48.812;9.180;2022-09-17T02:40:09;1.90;;;1.60;;
3975;SDS011;2002;48.812;9.180;2022-09-17T02:45:12;1.90;;;1.70;;
3975;SDS011;2002;48.812;9.180;2022-09-17T02:50:37;1.80;;;1.70;;
3975;SDS011;2002;48.812;9.180;2022-09-17T03:01:33;1.60;;;1.50;;
3975;SDS011;2002;48.812;9.180;2022-09-17T03:04:04;1.83;;;1.67;;
3975;SDS011;2002;48.812;9.180;2022-09-17T03:06:33;1.90;;;1.70;;
3975;SDS011;2002;48.812;9.180;2022-09-17T03:08:59;1.50;;;1.40;;
3975;SDS011;2002;48.812;9.180;2022-09-17T03:11:25;2.60;;;1.33;;
3975;SDS011;2002;48.812;9.180;2022-09-17T03:13:51;1.90;;;1.70;;
3975;SDS011;2002;48.812;9.180;2022-09-17T03:16:16;2.00;;;1.90;;
3975;SDS011;2002;48.812;9.180;2022-09-17T03:18:42;1.57;;;1.43;;
3975;SDS011;2002;48.812;9.180;2022-09-17T03:21:07;2.00;;;1.80;;
3975;SDS011;2002;48.812;9.180;2022-09-17T03:23:33;2.13;;;1.93;;
3975;SDS011;2002;48.812;9.180;2022-09-17T03:25:59;2.17;;;1.73;;
3975;SDS011;2002;48.812;9.180;2022-09-17T03:28:25;2.23;;;1.60;;
3975;SDS011;2002;48.812;9.180;2022-09-17T03:30:51;1.90;;;1.80;;
3975;SDS011;2002;48.812;9.180;2022-09-17T03:33:17;1.60;;;1.43;;
3975;SDS011;2002;48.812;9.180;2022-09-17T03:35:44;2.20;;;1.67;;
3975;SDS011;2002;48.812;9.180;2022-09-17T03:38:10;2.50;;;1.60;;
3975;SDS011;2002;48.812;9.180;2022-09-17T03:40:36;1.80;;;1.70;;
3975;SDS011;2002;48.812;9.180;2022-09-17T03:43:02;1.33;;;1.23;;
3975;SDS011;2002;48.812;9.180;2022-09-17T03:45:27;1.80;;;1.70;;
3975;SDS011;2002;48.812;9.180;2022-09-17T03:47:53;1.67;;;1.57;;
3975;SDS011;2002;48.812;9.180;2022-09-17T03:50:20;2.27;;;2.07;;
3975;SDS011;2002;48.812;9.180;2022-09-17T03:52:45;1.73;;;1.60;;
3975;SDS011;2002;48.812;9.180;2022-09-17T03:55:11;1.67;;;1.57;;
3975;SDS011;2002;48.812;9.180;2022-09-17T03:57:36;1.80;;;1.63;;
3975;SDS011;2002;48.812;9.180;2022-09-17T04:00:02;1.53;;;1.37;;
3975;SDS011;2002;48.812;9.180;2022-09-17T04:02:28;1.80;;;1.70;;
3975;SDS011;2002;48.812;9.180;2022-09-17T04:04:54;1.57;;;1.37;;
3975;SDS011;2002;48.812;9.180;2022-09-17T04:07:19;1.50;;;1.40;;
3975;SDS011;2002;48.812;9.180;2022-09-17T04:09:45;1.63;;;1.53;;
3975;SDS011;2002;48.812;9.180;2022-09-17T04:12:10;1.77;;;1.60;;
3975;SDS011;2002;48.812;9.180;2022-09-17T04:14:36;1.73;;;1.63;;
3975;SDS011;2002;48.812;9.180;2022-09-17T04:17:01;1.57;;;1.47;;
3975;SDS011;2002;48.812;9.180;2022-09-17T04:19:27;1.90;;;1.60;;
3975;SDS011;2002;48.812;9.180;2022-09-17T04:21:52;1.60;;;1.50;;
3975;SDS011;2002;48.812;9.180;2022-09-17T04:24:18;2.27;;;1.57;;
3975;SDS011;2002;48.812;9.180;2022-09-17T04:26:44;1.77;;;1.60;;
3975;SDS011;2002;48.812;9.180;2022-09-17T04:29:09;1.63;;;1.53;;
3975;SDS011;2002;48.812;9.180;2022-09-17T04:31:35;1.47;;;1.37;;
3975;SDS011;2002;48.812;9.180;2022-09-17T04:34:00;1.53;;;1.40;;
3975;SDS011;2002;48.812;9.180;2022-09-17T04:36:26;1.53;;;1.43;;
3975;SDS011;2002;48.812;9.180;2022-09-17T04:38:51;1.23;;;1.13;;
3975;SDS011;2002;48.812;9.180;2022-09-17T04:41:17;1.60;;;1.50;;
3975;SDS011;2002;48.812;9.180;2022-09-17T04:43:43;1.90;;;1.53;;
3975;SDS011;2002;48.812;9.180;2022-09-17T04:46:09;1.43;;;1.33;;
3975;SDS011;2002;48.812;9.180;2022-09-17T04:48:35;2.40;;;2.20;;
3975;SDS011;2002;48.812;9.180;2022-09-17T04:51:01;1.90;;;1.77;;
3975;SDS011;2002;48.812;9.180;2022-09-17T04:53:27;1.60;;;1.50;;
3975;SDS011;2002;48.812;9.180;2022-09-17T04:55:52;1.60;;;1.30;;
3975;SDS011;2002;48.812;9.180;2022-09-17T04:58:18;1.80;;;1.70;;
3975;SDS011;2002;48.812;9.180;2022-09-17T05:00:43;1.63;;;1.53;;
3975;SDS011;2002;48.812;9.180;2022-09-17T05:03:09;2.87;;;1.80;;
3975;SDS011;2002;48.812;9.180;2022-09-17T05:05:34;1.70;;;1.60;;
3975;SDS011;2002;48.812;9.180;2022-09-17T05:08:00;1.83;;;1.50;;
3975;SDS011;2002;48.812;9.180;2022-09-17T05:10:26;1.70;;;1.60;;
3975;SDS011;2002;48.812;9.180;2022-09-17T05:12:52;1.90;;;1.70;;
3975;SDS011;2002;48.812;9.180;2022-09-17T05:15:20;2.17;;;1.70;;
3975;SDS011;2002;48.812;9.180;2022-09-17T05:17:47;1.80;;;1.47;;
3975;SDS011;2002;48.812;9.180;2022-09-17T05:20:13;1.33;;;1.23;;
3975;SDS011;2002;48.812;9.180;2022-09-17T05:22:49;1.53;;;1.40;;
3975;SDS011;2002;48.812;9.180;2022-09-17T05:25:16;1.47;;;1.23;;
3975;SDS011;2002;48.812;9.180;2022-09-17T05:27:43;1.80;;;1.70;;
3975;SDS011;2002;48.812;9.180;2022-09-17T05:30:09;1.57;;;1.47;;
3975;SDS011;2002;48.812;9.180;2022-09-17T05:32:36;1.80;;;1.40;;
3975;SDS011;2002;48.812;9.180;2022-09-17T05:35:03;1.70;;;1.60;;
3975;SDS011;2002;48.812;9.180;2022-09-17T05:37:29;1.67;;;1.57;;
3975;SDS011;2002;48.812;9.180;2022-09-17T05:39:55;1.50;;;1.40;;
3975;SDS011;2002;48.812;9.180;2022-09-17T05:42:21;1.47;;;1.20;;
3975;SDS011;2002;48.812;9.180;2022-09-17T05:44:46;1.37;;;1.27;;
3975;SDS011;2002;48.812;9.180;2022-09-17T05:47:12;2.20;;;1.80;;
3975;SDS011;2002;48.812;9.180;2022-09-17T05:49:37;1.90;;;1.43;;
3975;SDS011;2002;48.812;9.180;2022-09-17T05:52:03;1.77;;;1.50;;
3975;SDS011;2002;48.812;9.180;2022-09-17T05:54:28;2.13;;;1.97;;
3975;SDS011;2002;48.812;9.180;2022-09-17T05:56:54;2.00;;;1.80;;
3975;SDS011;2002;48.812;9.180;2022-09-17T05:59:20;1.37;;;1.20;;
3975;SDS011;2002;48.812;9.180;2022-09-17T06:01:46;1.70;;;1.60;;
3975;SDS011;2002;48.812;9.180;2022-09-17T06:04:12;1.50;;;1.40;;
3975;SDS011;2002;48.812;9.180;2022-09-17T06:06:38;1.50;;;1.40;;
3975;SDS011;2002;48.812;9.180;2022-09-17T06:09:05;1.60;;;1.50;;
3975;SDS011;2002;48.812;9.180;2022-09-17T06:11:35;1.30;;;1.20;;
3975;SDS011;2002;48.812;9.180;2022-09-17T06:14:01;1.43;;;1.30;;
3975;SDS011;2002;48.812;9.180;2022-09-17T06:16:27;1.60;;;1.40;;
3975;SDS011;2002;48.812;9.180;2022-09-17T06:18:53;1.40;;;1.30;;
3975;SDS011;2002;48.812;9.180;2022-09-17T06:21:18;1.17;;;1.07;;
3975;SDS011;2002;48.812;9.180;2022-09-17T06:23:48;1.63;;;1.43;;
3975;SDS011;2002;48.812;9.180;2022-09-17T06:26:14;1.40;;;1.30;;
3975;SDS011;2002;48.812;9.180;2022-09-17T06:28:40;1.40;;;1.30;;
3975;SDS011;2002;48.812;9.180;2022-09-17T06:31:07;1.37;;;1.27;;
3975;SDS011;2002;48.812;9.180;2022-09-17T06:33:34;1.50;;;1.40;;
3975;SDS011;2002;48.812;9.180;2022-09-17T06:36:03;1.30;;;1.20;;
3975;SDS011;2002;48.812;9.180;2022-09-17T06:38:31;1.50;;;1.40;;
3975;SDS011;2002;48.812;9.180;2022-09-17T06:40:58;1.50;;;1.40;;
3975;SDS011;2002;48.812;9.180;2022-09-17T06:43:24;1.33;;;1.23;;
3975;SDS011;2002;48.812;9.180;2022-09-17T06:45:50;1.40;;;1.30;;
3975;SDS011;2002;48.812;9.180;2022-09-17T06:48:20;1.80;;;1.50;;
3975;SDS011;2002;48.812;9.180;2022-09-17T06:50:46;1.30;;;1.20;;
3975;SDS011;2002;48.812;9.180;2022-09-17T06:53:13;1.60;;;1.40;;
3975;SDS011;2002;48.812;9.180;2022-09-17T06:55:39;2.20;;;1.70;;
3975;SDS011;2002;48.812;9.180;2022-09-17T06:58:05;1.43;;;1.33;;
3975;SDS011;2002;48.812;9.180;2022-09-17T07:00:30;1.60;;;1.50;;
3975;SDS011;2002;48.812;9.180;2022-09-17T07:02:56;1.50;;;1.40;;
3975;SDS011;2002;48.812;9.180;2022-09-17T07:05:23;1.20;;;1.10;;
3975;SDS011;2002;48.812;9.180;2022-09-17T07:07:49;1.50;;;1.40;;
3975;SDS011;2002;48.812;9.180;2022-09-17T07:10:15;1.30;;;1.20;;
3975;SDS011;2002;48.812;9.180;2022-09-17T07:12:41;1.60;;;1.50;;
3975;SDS011;2002;48.812;9.180;2022-09-17T07:15:07;1.40;;;1.30;;
3975;SDS011;2002;48.812;9.180;2022-09-17T07:17:37;1.70;;;1.60;;
3975;SDS011;2002;48.812;9.180;2022-09-17T07:20:05;1.40;;;1.30;;
3975;SDS011;2002;48.812;9.180;2022-09-17T07:22:31;1.60;;;1.50;;
3975;SDS011;2002;48.812;9.180;2022-09-17T07:24:57;1.60;;;1.30;;
3975;SDS011;2002;48.812;9.180;2022-09-17T07:27:23;1.40;;;1.30;;
3975;SDS011;2002;48.812;9.180;2022-09-17T07:29:51;1.63;;;1.53;;
3975;SDS011;2002;48.812;9.180;2022-09-17T07:32:17;2.03;;;1.80;;
3975;SDS011;2002;48.812;9.180;2022-09-17T07:34:42;1.40;;;1.30;;
3975;SDS011;2002;48.812;9.180;2022-09-17T07:37:08;1.53;;;1.40;;
3975;SDS011;2002;48.812;9.180;2022-09-17T07:39:33;1.73;;;1.63;;
3975;SDS011;2002;48.812;9.180;2022-09-17T07:41:59;1.60;;;1.50;;
3975;SDS011;2002;48.812;9.180;2022-09-17T07:44:25;1.60;;;1.50;;
3975;SDS011;2002;48.812;9.180;2022-09-17T07:46:50;1.27;;;1.10;;
3975;SDS011;2002;48.812;9.180;2022-09-17T07:49:16;4.07;;;1.90;;
3975;SDS011;2002;48.812;9.180;2022-09-17T07:51:41;1.47;;;1.37;;
3975;SDS011;2002;48.812;9.180;2022-09-17T07:54:07;1.67;;;1.37;;
3975;SDS011;2002;48.812;9.180;2022-09-17T07:56:33;1.63;;;1.30;;
3975;SDS011;2002;48.812;9.180;2022-09-17T07:58:58;1.40;;;1.30;;
3975;SDS011;2002;48.812;9.180;2022-09-17T08:01:26;1.33;;;1.23;;
3975;SDS011;2002;48.812;9.180;2022-09-17T08:03:52;1.40;;;1.30;;
3975;SDS011;2002;48.812;9.180;2022-09-17T08:06:19;1.93;;;1.63;;
3975;SDS011;2002;48.812;9.180;2022-09-17T08:08:46;1.60;;;1.37;;
3975;SDS011;2002;48.812;9.180;2022-09-17T08:11:14;1.50;;;1.40;;
3975;SDS011;2002;48.812;9.180;2022-09-17T08:13:41;1.40;;;1.30;;
3975;SDS011;2002;48.812;9.180;2022-09-17T08:16:08;1.40;;;1.30;;
3975;SDS011;2002;48.812;9.180;2022-09-17T08:18:37;1.43;;;1.33;;
3975;SDS011;2002;48.812;9.180;2022-09-17T08:21:03;1.30;;;1.20;;
3975;SDS011;2002;48.812;9.180;2022-09-17T08:23:30;1.37;;;1.27;;
3975;SDS011;2002;48.812;9.180;2022-09-17T08:25:59;1.67;;;1.20;;
3975;SDS011;2002;48.812;9.180;2022-09-17T08:28:26;1.07;;;0.97;;
3975;SDS011;2002;48.812;9.180;2022-09-17T08:30:53;1.93;;;1.40;;
3975;SDS011;2002;48.812;9.180;2022-09-17T08:33:23;1.50;;;1.40;;
3975;SDS011;2002;48.812;9.180;2022-09-17T08:35:50;1.33;;;1.23;;
3975;SDS011;2002;48.812;9.180;2022-09-17T08:38:16;2.47;;;1.50;;
3975;SDS011;2002;48.812;9.180;2022-09-17T08:40:44;1.63;;;1.53;;
3975;SDS011;2002;48.812;9.180;2022-09-17T08:43:24;1.50;;;1.10;;
3975;SDS011;2002;48.812;9.180;2022-09-17T08:45:54;1.10;;;1.00;;
3975;SDS011;2002;48.812;9.180;2022-09-17T08:48:22;1.43;;;1.20;;
3975;SDS011;2002;48.812;9.180;2022-09-17T08:50:52;1.60;;;1.50;;
3975;SDS011;2002;48.812;9.180;2022-09-17T08:53:21;1.70;;;1.40;;
3975;SDS011;2002;48.812;9.180;2022-09-17T08:56:05;1.30;;;1.20;;
3975;SDS011;2002;48.812;9.180;2022-09-17T08:58:39;1.50;;;1.40;;
3975;SDS011;2002;48.812;9.180;2022-09-17T09:06:16;1.20;;;1.10;;
3975;SDS011;2002;48.812;9.180;2022-09-17T09:09:04;1.43;;;1.30;;
3975;SDS011;2002;48.812;9.180;2022-09-17T09:11:37;1.10;;;0.97;;
3975;SDS011;2002;48.812;9.180;2022-09-17T09:14:06;2.00;;;1.40;;
3975;SDS011;2002;48.812;9.180;2022-09-17T09:16:47;1.50;;;1.40;;
3975;SDS011;2002;48.812;9.180;2022-09-17T09:24:31;1.30;;;1.20;;
3975;SDS011;2002;48.812;9.180;2022-09-17T09:29:38;1.30;;;1.20;;
3975;SDS011;2002;48.812;9.180;2022-09-17T09:32:22;1.33;;;1.13;;
3975;SDS011;2002;48.812;9.180;2022-09-17T09:34:59;1.40;;;1.30;;
3975;SDS011;2002;48.812;9.180;2022-09-17T09:37:29;1.87;;;1.40;;
3975;SDS011;2002;48.812;9.180;2022-09-17T09:40:21;1.87;;;1.20;;
3975;SDS011;2002;48.812;9.180;2022-09-17T09:43:19;1.20;;;1.10;;
3975;SDS011;2002;48.812;9.180;2022-09-17T09:54:08;1.53;;;1.33;;
3975;SDS011;2002;48.812;9.180;2022-09-17T09:56:51;1.23;;;1.00;;
3975;SDS011;2002;48.812;9.180;2022-09-17T09:59:28;1.50;;;1.40;;
3975;SDS011;2002;48.812;9.180;2022-09-17T10:01:53;1.80;;;1.27;;
3975;SDS011;2002;48.812;9.180;2022-09-17T10:04:20;1.20;;;1.10;;
3975;SDS011;2002;48.812;9.180;2022-09-17T10:06:51;1.60;;;1.50;;
3975;SDS011;2002;48.812;9.180;2022-09-17T10:09:18;1.53;;;1.13;;
3975;SDS011;2002;48.812;9.180;2022-09-17T10:12:09;1.60;;;1.07;;
3975;SDS011;2002;48.812;9.180;2022-09-17T10:14:38;1.30;;;1.20;;
3975;SDS011;2002;48.812;9.180;2022-09-17T10:17:24;1.40;;;1.30;;
3975;SDS011;2002;48.812;9.180;2022-09-17T10:22:34;1.27;;;1.00;;
3975;SDS011;2002;48.812;9.180;2022-09-17T10:25:02;1.30;;;1.20;;
3975;SDS011;2002;48.812;9.180;2022-09-17T10:27:30;1.20;;;1.10;;
3975;SDS011;2002;48.812;9.180;2022-09-17T10:30:13;1.47;;;1.10;;
3975;SDS011;2002;48.812;9.180;2022-09-17T10:32:40;1.00;;;0.90;;
3975;SDS011;2002;48.812;9.180;2022-09-17T10:35:23;1.10;;;1.00;;
3975;SDS011;2002;48.812;9.180;2022-09-17T10:37:51;1.40;;;1.23;;
3975;SDS011;2002;48.812;9.180;2022-09-17T10:42:43;1.30;;;1.20;;
3975;SDS011;2002;48.812;9.180;2022-09-17T10:45:22;1.33;;;1.23;;
3975;SDS011;2002;48.812;9.180;2022-09-17T10:47:51;1.10;;;1.00;;
3975;SDS011;2002;48.812;9.180;2022-09-17T10:50:17;1.00;;;0.90;;
3975;SDS011;2002;48.812;9.180;2022-09-17T10:52:49;1.33;;;1.07;;
3975;SDS011;2002;48.812;9.180;2022-09-17T11:08:42;1.53;;;1.17;;
3975;SDS011;2002;48.812;9.180;2022-09-17T11:11:27;1.90;;;1.10;;
3975;SDS011;2002;48.812;9.180;2022-09-17T11:14:29;1.10;;;0.90;;
3975;SDS011;2002;48.812;9.180;2022-09-17T11:17:02;1.10;;;1.00;;
3975;SDS011;2002;48.812;9.180;2022-09-17T11:22:23;1.50;;;1.40;;
3975;SDS011;2002;48.812;9.180;2022-09-17T11:25:14;1.23;;;1.10;;
3975;SDS011;2002;48.812;9.180;2022-09-17T11:28:05;1.20;;;1.10;;
3975;SDS011;2002;48.812;9.180;2022-09-17T11:30:44;1.00;;;1.00;;
3975;SDS011;2002;48.812;9.180;2022-09-17T11:36:16;1.13;;;1.03;;
3975;SDS011;2002;48.812;9.180;2022-09-17T11:38:58;1.10;;;0.97;;
3975;SDS011;2002;48.812;9.180;2022-09-17T11:41:40;1.83;;;1.40;;
3975;SDS011;2002;48.812;9.180;2022-09-17T11:47:34;1.17;;;1.07;;
3975;SDS011;2002;48.812;9.180;2022-09-17T11:50:08;1.80;;;1.70;;
3975;SDS011;2002;48.812;9.180;2022-09-17T11:53:03;1.40;;;1.07;;
3975;SDS011;2002;48.812;9.180;2022-09-17T11:55:52;1.00;;;0.90;;
3975;SDS011;2002;48.812;9.180;2022-09-17T11:59:12;2.50;;;1.10;;
3975;SDS011;2002;48.812;9.180;2022-09-17T12:01:20;1.00;;;0.90;;
3975;SDS011;2002;48.812;9.180;2022-09-17T12:03:54;1.40;;;1.30;;
3975;SDS011;2002;48.812;9.180;2022-09-17T12:06:33;1.70;;;1.40;;
3975;SDS011;2002;48.812;9.180;2022-09-17T12:09:33;1.87;;;1.40;;
3975;SDS011;2002;48.812;9.180;2022-09-17T12:14:55;1.53;;;1.23;;
3975;SDS011;2002;48.812;9.180;2022-09-17T12:17:30;1.53;;;1.43;;
3975;SDS011;2002;48.812;9.180;2022-09-17T12:20:07;1.47;;;1.20;;
3975;SDS011;2002;48.812;9.180;2022-09-17T12:22:56;1.83;;;1.40;;
3975;SDS011;2002;48.812;9.180;2022-09-17T12:25:25;1.97;;;1.27;;
3975;SDS011;2002;48.812;9.180;2022-09-17T12:27:58;1.13;;;1.03;;
3975;SDS011;2002;48.812;9.180;2022-09-17T12:30:34;1.17;;;1.07;;
3975;SDS011;2002;48.812;9.180;2022-09-17T12:33:23;1.27;;;1.10;;
3975;SDS011;2002;48.812;9.180;2022-09-17T12:50:40;1.23;;;1.13;;
3975;SDS011;2002;48.812;9.180;2022-09-17T12:53:51;1.20;;;1.10;;
3975;SDS011;2002;48.812;9.180;2022-09-17T13:01:37;1.60;;;1.50;;
3975;SDS011;2002;48.812;9.180;2022-09-17T13:07:24;1.23;;;1.13;;
3975;SDS011;2002;48.812;9.180;2022-09-17T13:26:07;1.13;;;1.03;;
3975;SDS011;2002;48.812;9.180;2022-09-17T13:28:35;1.60;;;1.30;;
3975;SDS011;2002;48.812;9.180;2022-09-17T13:31:05;1.30;;;1.20;;
3975;SDS011;2002;48.812;9.180;2022-09-17T13:39:04;1.00;;;0.90;;
3975;SDS011;2002;48.812;9.180;2022-09-17T13:41:33;0.80;;;0.80;;
3975;SDS011;2002;48.812;9.180;2022-09-17T13:44:02;1.57;;;1.03;;
3975;SDS011;2002;48.812;9.180;2022-09-17T13:46:29;1.10;;;1.00;;
3975;SDS011;2002;48.812;9.180;2022-09-17T13:49:19;1.10;;;1.00;;
3975;SDS011;2002;48.812;9.180;2022-09-17T13:51:44;1.27;;;1.17;;
3975;SDS011;2002;48.812;9.180;2022-09-17T13:54:11;1.27;;;1.17;;
3975;SDS011;2002;48.812;9.180;2022-09-17T13:56:43;1.17;;;1.00;;
3975;SDS011;2002;48.812;9.180;2022-09-17T13:59:24;1.10;;;1.00;;
3975;SDS011;2002;48.812;9.180;2022-09-17T14:02:52;1.27;;;1.17;;
3975;SDS011;2002;48.812;9.180;2022-09-17T14:04:52;1.50;;;1.40;;
3975;SDS011;2002;48.812;9.180;2022-09-17T14:09:52;1.17;;;1.00;;
3975;SDS011;2002;48.812;9.180;2022-09-17T14:15:03;1.30;;;1.20;;
3975;SDS011;2002;48.812;9.180;2022-09-17T14:17:57;1.23;;;1.13;;
3975;SDS011;2002;48.812;9.180;2022-09-17T14:20:23;1.93;;;1.30;;
3975;SDS011;2002;48.812;9.180;2022-09-17T14:22:54;1.90;;;1.10;;
3975;SDS011;2002;48.812;9.180;2022-09-17T14:25:32;1.10;;;1.00;;
3975;SDS011;2002;48.812;9.180;2022-09-17T14:28:12;0.93;;;0.83;;
3975;SDS011;2002;48.812;9.180;2022-09-17T14:31:12;1.20;;;1.07;;
3975;SDS011;2002;48.812;9.180;2022-09-17T14:33:42;1.60;;;1.10;;
3975;SDS011;2002;48.812;9.180;2022-09-17T14:36:13;1.20;;;1.10;;
3975;SDS011;2002;48.812;9.180;2022-09-17T14:38:43;0.80;;;0.80;;
3975;SDS011;2002;48.812;9.180;2022-09-17T14:43:49;1.10;;;1.00;;
3975;SDS011;2002;48.812;9.180;2022-09-17T14:46:20;1.17;;;1.07;;
3975;SDS011;2002;48.812;9.180;2022-09-17T14:48:52;1.20;;;0.93;;
3975;SDS011;2002;48.812;9.180;2022-09-17T14:53:47;2.13;;;1.20;;
3975;SDS011;2002;48.812;9.180;2022-09-17T14:56:29;1.23;;;1.13;;
3975;SDS011;2002;48.812;9.180;2022-09-17T14:58:58;1.30;;;1.20;;
3975;SDS011;2002;48.812;9.180;2022-09-17T15:01:26;1.13;;;1.00;;
3975;SDS011;2002;48.812;9.180;2022-09-17T15:04:09;1.07;;;0.97;;
3975;SDS011;2002;48.812;9.180;2022-09-17T15:06:38;1.10;;;1.00;;
3975;SDS011;2002;48.812;9.180;2022-09-17T15:09:05;0.97;;;0.97;;
3975;SDS011;2002;48.812;9.180;2022-09-17T15:11:39;1.30;;;1.10;;
3975;SDS011;2002;48.812;9.180;2022-09-17T15:14:09;1.20;;;1.10;;
3975;SDS011;2002;48.812;9.180;2022-09-17T15:16:45;0.90;;;0.90;;
3975;SDS011;2002;48.812;9.180;2022-09-17T15:19:13;0.90;;;0.80;;
3975;SDS011;2002;48.812;9.180;2022-09-17T15:21:47;0.93;;;0.80;;
3975;SDS011;2002;48.812;9.180;2022-09-17T15:24:30;1.20;;;1.00;;
3975;SDS011;2002;48.812;9.180;2022-09-17T15:27:27;1.23;;;1.10;;
3975;SDS011;2002;48.812;9.180;2022-09-17T15:32:37;1.23;;;0.80;;
3975;SDS011;2002;48.812;9.180;2022-09-17T15:35:19;0.80;;;0.80;;
3975;SDS011;2002;48.812;9.180;2022-09-17T15:37:48;1.63;;;1.00;;
3975;SDS011;2002;48.812;9.180;2022-09-17T15:40:29;1.10;;;0.90;;
3975;SDS011;2002;48.812;9.180;2022-09-17T15:45:49;1.40;;;1.30;;
3975;SDS011;2002;48.812;9.180;2022-09-17T15:50:56;1.30;;;1.20;;
3975;SDS011;2002;48.812;9.180;2022-09-17T15:53:24;1.17;;;1.03;;
3975;SDS011;2002;48.812;9.180;2022-09-17T16:08:47;2.97;;;0.70;;
3975;SDS011;2002;48.812;9.180;2022-09-17T16:11:13;0.80;;;0.80;;
3975;SDS011;2002;48.812;9.180;2022-09-17T16:13:49;1.93;;;0.90;;
3975;SDS011;2002;48.812;9.180;2022-09-17T16:16:18;1.00;;;0.90;;
3975;SDS011;2002;48.812;9.180;2022-09-17T16:18:46;1.23;;;1.13;;
3975;SDS011;2002;48.812;9.180;2022-09-17T16:21:13;1.20;;;1.10;;
3975;SDS011;2002;48.812;9.180;2022-09-17T16:23:39;0.90;;;0.90;;
3975;SDS011;2002;48.812;9.180;2022-09-17T16:26:05;1.00;;;0.87;;
3975;SDS011;2002;48.812;9.180;2022-09-17T16:28:36;1.40;;;1.30;;
3975;SDS011;2002;48.812;9.180;2022-09-17T16:31:03;0.90;;;0.87;;
3975;SDS011;2002;48.812;9.180;2022-09-17T16:33:30;2.40;;;0.80;;
3975;SDS011;2002;48.812;9.180;2022-09-17T16:35:56;1.20;;;1.10;;
3975;SDS011;2002;48.812;9.180;2022-09-17T16:38:23;0.93;;;0.80;;
3975;SDS011;2002;48.812;9.180;2022-09-17T16:40:49;1.17;;;1.07;;
3975;SDS011;2002;48.812;9.180;2022-09-17T16:43:15;0.90;;;0.90;;
3975;SDS011;2002;48.812;9.180;2022-09-17T16:45:42;1.17;;;1.07;;
3975;SDS011;2002;48.812;9.180;2022-09-17T16:48:08;1.40;;;1.00;;
3975;SDS011;2002;48.812;9.180;2022-09-17T16:50:34;0.80;;;0.80;;
3975;SDS011;2002;48.812;9.180;2022-09-17T16:53:03;1.43;;;1.10;;
3975;SDS011;2002;48.812;9.180;2022-09-17T16:55:29;1.00;;;0.90;;
3975;SDS011;2002;48.812;9.180;2022-09-17T16:57:57;1.10;;;0.97;;
3975;SDS011;2002;48.812;9.180;2022-09-17T17:00:23;1.07;;;0.80;;
3975;SDS011;2002;48.812;9.180;2022-09-17T17:02:53;1.00;;;0.70;;
3975;SDS011;2002;48.812;9.180;2022-09-17T17:05:20;0.93;;;0.87;;
3975;SDS011;2002;48.812;9.180;2022-09-17T17:07:46;1.57;;;1.03;;
3975;SDS011;2002;48.812;9.180;2022-09-17T17:10:11;1.00;;;0.90;;
3975;SDS011;2002;48.812;9.180;2022-09-17T17:12:37;1.20;;;1.07;;
3975;SDS011;2002;48.812;9.180;2022-09-17T17:15:03;1.00;;;0.90;;
3975;SDS011;2002;48.812;9.180;2022-09-17T17:17:30;1.73;;;1.00;;
3975;SDS011;2002;48.812;9.180;2022-09-17T17:19:56;0.90;;;0.70;;
3975;SDS011;2002;48.812;9.180;2022-09-17T17:22:22;1.10;;;0.80;;
3975;SDS011;2002;48.812;9.180;2022-09-17T17:24:48;1.13;;;1.03;;
3975;SDS011;2002;48.812;9.180;2022-09-17T17:27:14;1.50;;;1.03;;
3975;SDS011;2002;48.812;9.180;2022-09-17T17:29:39;1.43;;;0.83;;
3975;SDS011;2002;48.812;9.180;2022-09-17T17:32:05;1.20;;;1.10;;
3975;SDS011;2002;48.812;9.180;2022-09-17T17:34:31;1.17;;;0.83;;
3975;SDS011;2002;48.812;9.180;2022-09-17T17:36:57;1.30;;;0.83;;
3975;SDS011;2002;48.812;9.180;2022-09-17T17:39:23;1.10;;;0.90;;
3975;SDS011;2002;48.812;9.180;2022-09-17T17:41:48;0.83;;;0.80;;
3975;SDS011;2002;48.812;9.180;2022-09-17T17:44:14;0.97;;;0.87;;
3975;SDS011;2002;48.812;9.180;2022-09-17T17:46:40;0.90;;;0.80;;
3975;SDS011;2002;48.812;9.180;2022-09-17T17:49:06;1.30;;;1.10;;
3975;SDS011;2002;48.812;9.180;2022-09-17T17:51:32;1.20;;;0.90;;
3975;SDS011;2002;48.812;9.180;2022-09-17T17:53:58;1.10;;;1.00;;
3975;SDS011;2002;48.812;9.180;2022-09-17T17:56:24;0.80;;;0.80;;
3975;SDS011;2002;48.812;9.180;2022-09-17T17:58:54;1.07;;;0.90;;
3975;SDS011;2002;48.812;9.180;2022-09-17T18:01:24;0.90;;;0.90;;
3975;SDS011;2002;48.812;9.180;2022-09-17T18:03:55;1.20;;;1.10;;
3975;SDS011;2002;48.812;9.180;2022-09-17T18:06:22;0.90;;;0.80;;
3975;SDS011;2002;48.812;9.180;2022-09-17T18:08:48;1.20;;;1.10;;
3975;SDS011;2002;48.812;9.180;2022-09-17T18:11:13;1.77;;;1.13;;
3975;SDS011;2002;48.812;9.180;2022-09-17T18:13:39;1.67;;;0.90;;
3975;SDS011;2002;48.812;9.180;2022-09-17T18:16:05;0.93;;;0.70;;
3975;SDS011;2002;48.812;9.180;2022-09-17T18:18:36;0.80;;;0.70;;
3975;SDS011;2002;48.812;9.180;2022-09-17T18:21:04;1.10;;;1.00;;
3975;SDS011;2002;48.812;9.180;2022-09-17T18:23:35;0.97;;;0.83;;
3975;SDS011;2002;48.812;9.180;2022-09-17T18:26:02;1.00;;;0.90;;